Terminal Aerodrome Forecast
Issued by NWS

Home | Current Version | Previous Version | Text Only | Print | Product List | Glossary On
Versions: 1 2 3 4 5 6 7 8 9 10 11 12 13 14 15 16 17 18 19 20 21 22 23 24 25 26 27 28 29
000
FTUS43 KDLH 212300 RRA
TAFHIB
TAF
KHIB 212347Z 2200/2224 17008KT P6SM SCT025
     FM220300 15006KT P6SM -TSRA BKN035CB
      TEMPO 2206/2209 VRB40KT 2SM +TSRA OVC011CB
     FM220900 VRB05KT 2SM BR VCSH OVC008
     FM221500 31012G22KT P6SM SCT007 OVC015=

USA.gov is the U.S. government's official web portal to all federal, state and local government web resources and services.